sensor_id;sensor_type;location;lat;lon;timestamp;temperature;humidity
19622;DHT22;9958;33.196;-97.114;2023-03-01T00:01:20;25.70;32.00
19622;DHT22;9958;33.196;-97.114;2023-03-01T00:03:51;25.60;31.90
19622;DHT22;9958;33.196;-97.114;2023-03-01T00:06:21;25.50;31.90
19622;DHT22;9958;33.196;-97.114;2023-03-01T00:08:50;25.40;32.20
19622;DHT22;9958;33.196;-97.114;2023-03-01T00:11:20;25.30;32.40
19622;DHT22;9958;33.196;-97.114;2023-03-01T00:13:50;25.10;33.00
19622;DHT22;9958;33.196;-97.114;2023-03-01T00:16:24;25.10;33.70
19622;DHT22;9958;33.196;-97.114;2023-03-01T00:18:54;24.90;33.90
19622;DHT22;9958;33.196;-97.114;2023-03-01T00:21:24;24.80;34.10
19622;DHT22;9958;33.196;-97.114;2023-03-01T00:23:53;24.60;34.20
19622;DHT22;9958;33.196;-97.114;2023-03-01T00:26:25;24.50;34.30
19622;DHT22;9958;33.196;-97.114;2023-03-01T00:28:54;24.40;34.30
19622;DHT22;9958;33.196;-97.114;2023-03-01T00:31:25;24.30;34.60
19622;DHT22;9958;33.196;-97.114;2023-03-01T00:33:54;24.10;35.20
19622;DHT22;9958;33.196;-97.114;2023-03-01T00:36:26;24.00;35.70
19622;DHT22;9958;33.196;-97.114;2023-03-01T00:38:54;23.90;36.30
19622;DHT22;9958;33.196;-97.114;2023-03-01T00:41:23;23.70;36.60
19622;DHT22;9958;33.196;-97.114;2023-03-01T00:43:53;23.60;36.80
19622;DHT22;9958;33.196;-97.114;2023-03-01T00:46:24;23.40;36.70
19622;DHT22;9958;33.196;-97.114;2023-03-01T00:48:52;23.30;36.80
19622;DHT22;9958;33.196;-97.114;2023-03-01T00:51:22;23.20;37.00
19622;DHT22;9958;33.196;-97.114;2023-03-01T00:53:54;23.10;37.20
19622;DHT22;9958;33.196;-97.114;2023-03-01T00:56:23;23.00;37.20
19622;DHT22;9958;33.196;-97.114;2023-03-01T00:58:52;22.80;37.00
19622;DHT22;9958;33.196;-97.114;2023-03-01T01:01:21;22.70;37.20
19622;DHT22;9958;33.196;-97.114;2023-03-01T01:03:52;22.60;37.30
19622;DHT22;9958;33.196;-97.114;2023-03-01T01:06:23;22.50;37.40
19622;DHT22;9958;33.196;-97.114;2023-03-01T01:08:54;22.40;37.50
19622;DHT22;9958;33.196;-97.114;2023-03-01T01:11:24;22.30;37.70
19622;DHT22;9958;33.196;-97.114;2023-03-01T01:13:53;22.20;37.70
19622;DHT22;9958;33.196;-97.114;2023-03-01T01:16:24;22.10;37.60
19622;DHT22;9958;33.196;-97.114;2023-03-01T01:18:53;22.00;37.60
19622;DHT22;9958;33.196;-97.114;2023-03-01T01:21:24;22.00;37.80
19622;DHT22;9958;33.196;-97.114;2023-03-01T01:23:54;21.90;37.90
19622;DHT22;9958;33.196;-97.114;2023-03-01T01:26:27;21.90;37.90
19622;DHT22;9958;33.196;-97.114;2023-03-01T01:28:56;21.80;38.10
19622;DHT22;9958;33.196;-97.114;2023-03-01T01:31:25;21.70;37.90
19622;DHT22;9958;33.196;-97.114;2023-03-01T01:33:56;21.70;38.10
19622;DHT22;9958;33.196;-97.114;2023-03-01T01:36:24;21.70;38.10
19622;DHT22;9958;33.196;-97.114;2023-03-01T01:38:54;21.60;38.00
19622;DHT22;9958;33.196;-97.114;2023-03-01T01:41:24;21.60;38.40
19622;DHT22;9958;33.196;-97.114;2023-03-01T01:44:12;21.50;38.40
19622;DHT22;9958;33.196;-97.114;2023-03-01T01:46:41;21.50;38.60
19622;DHT22;9958;33.196;-97.114;2023-03-01T01:49:23;21.50;38.80
19622;DHT22;9958;33.196;-97.114;2023-03-01T01:51:58;21.40;39.10
19622;DHT22;9958;33.196;-97.114;2023-03-01T01:54:34;21.40;39.00
19622;DHT22;9958;33.196;-97.114;2023-03-01T01:57:09;21.30;39.00
19622;DHT22;9958;33.196;-97.114;2023-03-01T01:59:39;21.30;39.20
19622;DHT22;9958;33.196;-97.114;2023-03-01T02:02:10;21.30;39.50
19622;DHT22;9958;33.196;-97.114;2023-03-01T02:04:40;21.20;39.40
19622;DHT22;9958;33.196;-97.114;2023-03-01T02:07:14;21.20;39.40
19622;DHT22;9958;33.196;-97.114;2023-03-01T02:09:47;21.20;39.60
19622;DHT22;9958;33.196;-97.114;2023-03-01T02:12:17;21.10;39.60
19622;DHT22;9958;33.196;-97.114;2023-03-01T02:14:46;21.00;39.90
19622;DHT22;9958;33.196;-97.114;2023-03-01T02:17:16;21.00;40.00
19622;DHT22;9958;33.196;-97.114;2023-03-01T02:19:57;21.00;40.00
19622;DHT22;9958;33.196;-97.114;2023-03-01T02:22:29;21.00;40.10
19622;DHT22;9958;33.196;-97.114;2023-03-01T02:25:09;20.90;40.00
19622;DHT22;9958;33.196;-97.114;2023-03-01T02:27:52;20.90;40.10
19622;DHT22;9958;33.196;-97.114;2023-03-01T02:30:25;20.80;40.20
19622;DHT22;9958;33.196;-97.114;2023-03-01T02:32:56;20.80;40.50
19622;DHT22;9958;33.196;-97.114;2023-03-01T02:35:30;20.70;40.50
19622;DHT22;9958;33.196;-97.114;2023-03-01T02:38:01;20.70;40.70
19622;DHT22;9958;33.196;-97.114;2023-03-01T02:40:31;20.70;40.90
19622;DHT22;9958;33.196;-97.114;2023-03-01T02:43:01;20.60;41.00
19622;DHT22;9958;33.196;-97.114;2023-03-01T02:45:33;20.60;41.00
19622;DHT22;9958;33.196;-97.114;2023-03-01T02:48:02;20.60;41.20
19622;DHT22;9958;33.196;-97.114;2023-03-01T02:50:55;20.50;41.20
19622;DHT22;9958;33.196;-97.114;2023-03-01T02:53:32;20.50;41.30
19622;DHT22;9958;33.196;-97.114;2023-03-01T02:56:03;20.50;41.40
19622;DHT22;9958;33.196;-97.114;2023-03-01T02:58:32;20.40;41.50
19622;DHT22;9958;33.196;-97.114;2023-03-01T03:01:08;20.40;41.50
19622;DHT22;9958;33.196;-97.114;2023-03-01T03:03:36;20.40;41.70
19622;DHT22;9958;33.196;-97.114;2023-03-01T03:06:05;20.30;41.80
19622;DHT22;9958;33.196;-97.114;2023-03-01T03:08:33;20.30;41.90
19622;DHT22;9958;33.196;-97.114;2023-03-01T03:11:02;20.30;41.90
19622;DHT22;9958;33.196;-97.114;2023-03-01T03:13:30;20.20;42.50
19622;DHT22;9958;33.196;-97.114;2023-03-01T03:15:58;20.20;42.80
19622;DHT22;9958;33.196;-97.114;2023-03-01T03:18:28;20.20;43.10
19622;DHT22;9958;33.196;-97.114;2023-03-01T03:20:57;20.20;43.50
19622;DHT22;9958;33.196;-97.114;2023-03-01T03:23:27;20.20;43.80
19622;DHT22;9958;33.196;-97.114;2023-03-01T03:25:56;20.20;44.20
19622;DHT22;9958;33.196;-97.114;2023-03-01T03:28:24;20.20;44.40
19622;DHT22;9958;33.196;-97.114;2023-03-01T03:30:52;20.10;44.60
19622;DHT22;9958;33.196;-97.114;2023-03-01T03:33:21;20.10;45.10
19622;DHT22;9958;33.196;-97.114;2023-03-01T03:35:51;20.10;45.30
19622;DHT22;9958;33.196;-97.114;2023-03-01T03:38:20;20.10;45.60
19622;DHT22;9958;33.196;-97.114;2023-03-01T03:40:50;20.10;46.00
19622;DHT22;9958;33.196;-97.114;2023-03-01T03:43:21;20.00;46.10
19622;DHT22;9958;33.196;-97.114;2023-03-01T03:45:50;20.00;46.70
19622;DHT22;9958;33.196;-97.114;2023-03-01T03:48:20;20.00;47.30
19622;DHT22;9958;33.196;-97.114;2023-03-01T03:50:51;19.90;47.60
19622;DHT22;9958;33.196;-97.114;2023-03-01T03:53:21;19.90;48.20
19622;DHT22;9958;33.196;-97.114;2023-03-01T03:55:50;19.90;49.00
19622;DHT22;9958;33.196;-97.114;2023-03-01T03:58:19;19.90;49.50
19622;DHT22;9958;33.196;-97.114;2023-03-01T04:00:51;19.90;50.00
19622;DHT22;9958;33.196;-97.114;2023-03-01T04:03:20;19.90;51.10
19622;DHT22;9958;33.196;-97.114;2023-03-01T04:05:50;20.00;51.50
19622;DHT22;9958;33.196;-97.114;2023-03-01T04:08:20;20.00;52.20
19622;DHT22;9958;33.196;-97.114;2023-03-01T04:10:50;20.00;52.50
19622;DHT22;9958;33.196;-97.114;2023-03-01T04:13:21;20.00;52.90
19622;DHT22;9958;33.196;-97.114;2023-03-01T04:15:51;20.00;53.30
19622;DHT22;9958;33.196;-97.114;2023-03-01T04:18:21;20.00;53.80
19622;DHT22;9958;33.196;-97.114;2023-03-01T04:20:50;20.00;54.30
19622;DHT22;9958;33.196;-97.114;2023-03-01T04:23:23;20.00;54.70
19622;DHT22;9958;33.196;-97.114;2023-03-01T04:25:52;20.10;55.20
19622;DHT22;9958;33.196;-97.114;2023-03-01T04:28:22;20.00;56.00
19622;DHT22;9958;33.196;-97.114;2023-03-01T04:30:52;20.00;56.20
19622;DHT22;9958;33.196;-97.114;2023-03-01T04:33:21;20.10;56.30
19622;DHT22;9958;33.196;-97.114;2023-03-01T04:35:50;20.00;56.80
19622;DHT22;9958;33.196;-97.114;2023-03-01T04:38:19;20.10;57.50
19622;DHT22;9958;33.196;-97.114;2023-03-01T04:40:49;20.00;57.80
19622;DHT22;9958;33.196;-97.114;2023-03-01T04:43:17;20.00;58.90
19622;DHT22;9958;33.196;-97.114;2023-03-01T04:45:45;20.00;59.30
19622;DHT22;9958;33.196;-97.114;2023-03-01T04:48:14;20.00;59.70
19622;DHT22;9958;33.196;-97.114;2023-03-01T04:50:42;20.00;60.00
19622;DHT22;9958;33.196;-97.114;2023-03-01T04:53:10;20.00;61.10
19622;DHT22;9958;33.196;-97.114;2023-03-01T04:55:38;20.00;61.20
19622;DHT22;9958;33.196;-97.114;2023-03-01T04:58:08;20.00;62.20
19622;DHT22;9958;33.196;-97.114;2023-03-01T05:00:37;20.00;62.70
19622;DHT22;9958;33.196;-97.114;2023-03-01T05:03:05;20.00;63.90
19622;DHT22;9958;33.196;-97.114;2023-03-01T05:05:35;20.00;64.50
19622;DHT22;9958;33.196;-97.114;2023-03-01T05:08:06;20.00;64.90
19622;DHT22;9958;33.196;-97.114;2023-03-01T05:10:36;20.00;65.60
19622;DHT22;9958;33.196;-97.114;2023-03-01T05:13:05;20.00;66.10
19622;DHT22;9958;33.196;-97.114;2023-03-01T05:15:34;20.00;66.70
19622;DHT22;9958;33.196;-97.114;2023-03-01T05:18:03;20.00;67.30
19622;DHT22;9958;33.196;-97.114;2023-03-01T05:20:38;20.00;67.90
19622;DHT22;9958;33.196;-97.114;2023-03-01T05:23:06;19.90;68.30
19622;DHT22;9958;33.196;-97.114;2023-03-01T05:25:34;19.90;69.20
19622;DHT22;9958;33.196;-97.114;2023-03-01T05:28:07;19.90;69.80
19622;DHT22;9958;33.196;-97.114;2023-03-01T05:30:39;19.90;70.30
19622;DHT22;9958;33.196;-97.114;2023-03-01T05:33:08;19.90;70.80
19622;DHT22;9958;33.196;-97.114;2023-03-01T05:35:40;19.90;71.60
19622;DHT22;9958;33.196;-97.114;2023-03-01T05:38:09;19.90;72.10
19622;DHT22;9958;33.196;-97.114;2023-03-01T05:40:40;19.90;72.60
19622;DHT22;9958;33.196;-97.114;2023-03-01T05:43:08;19.90;73.20
19622;DHT22;9958;33.196;-97.114;2023-03-01T05:45:39;19.90;73.20
19622;DHT22;9958;33.196;-97.114;2023-03-01T05:48:09;19.90;74.30
19622;DHT22;9958;33.196;-97.114;2023-03-01T05:50:39;19.80;75.00
19622;DHT22;9958;33.196;-97.114;2023-03-01T05:53:10;19.90;75.60
19622;DHT22;9958;33.196;-97.114;2023-03-01T05:55:39;19.80;75.80
19622;DHT22;9958;33.196;-97.114;2023-03-01T05:58:11;19.80;76.40
19622;DHT22;9958;33.196;-97.114;2023-03-01T06:00:43;19.80;76.70
19622;DHT22;9958;33.196;-97.114;2023-03-01T06:03:12;19.80;77.10
19622;DHT22;9958;33.196;-97.114;2023-03-01T06:05:41;19.80;77.60
19622;DHT22;9958;33.196;-97.114;2023-03-01T06:08:10;19.70;78.10
19622;DHT22;9958;33.196;-97.114;2023-03-01T06:10:38;19.70;78.50
19622;DHT22;9958;33.196;-97.114;2023-03-01T06:13:07;19.70;78.80
19622;DHT22;9958;33.196;-97.114;2023-03-01T06:15:35;19.70;79.00
19622;DHT22;9958;33.196;-97.114;2023-03-01T06:18:05;19.70;79.80
19622;DHT22;9958;33.196;-97.114;2023-03-01T06:20:33;19.70;80.40
19622;DHT22;9958;33.196;-97.114;2023-03-01T06:23:02;19.60;80.70
19622;DHT22;9958;33.196;-97.114;2023-03-01T06:25:30;19.60;81.40
19622;DHT22;9958;33.196;-97.114;2023-03-01T06:27:58;19.60;82.00
19622;DHT22;9958;33.196;-97.114;2023-03-01T06:30:27;19.60;82.50
19622;DHT22;9958;33.196;-97.114;2023-03-01T06:32:56;19.60;83.10
19622;DHT22;9958;33.196;-97.114;2023-03-01T06:35:29;19.60;83.40
19622;DHT22;9958;33.196;-97.114;2023-03-01T06:37:59;19.60;84.70
19622;DHT22;9958;33.196;-97.114;2023-03-01T06:40:27;19.60;84.60
19622;DHT22;9958;33.196;-97.114;2023-03-01T06:42:55;19.60;84.80
19622;DHT22;9958;33.196;-97.114;2023-03-01T06:45:24;19.60;85.40
19622;DHT22;9958;33.196;-97.114;2023-03-01T06:47:57;19.70;86.10
19622;DHT22;9958;33.196;-97.114;2023-03-01T06:50:30;19.60;86.50
19622;DHT22;9958;33.196;-97.114;2023-03-01T06:52:59;19.70;87.10
19622;DHT22;9958;33.196;-97.114;2023-03-01T06:55:27;19.70;87.70
19622;DHT22;9958;33.196;-97.114;2023-03-01T06:57:56;19.70;88.00
19622;DHT22;9958;33.196;-97.114;2023-03-01T07:00:25;19.70;88.60
19622;DHT22;9958;33.196;-97.114;2023-03-01T07:02:54;19.70;88.90
19622;DHT22;9958;33.196;-97.114;2023-03-01T07:05:22;19.70;89.30
19622;DHT22;9958;33.196;-97.114;2023-03-01T07:07:53;19.70;89.60
19622;DHT22;9958;33.196;-97.114;2023-03-01T07:10:22;19.70;89.90
19622;DHT22;9958;33.196;-97.114;2023-03-01T07:12:53;19.70;90.10
19622;DHT22;9958;33.196;-97.114;2023-03-01T07:15:22;19.70;90.30
19622;DHT22;9958;33.196;-97.114;2023-03-01T07:17:50;19.70;90.60
19622;DHT22;9958;33.196;-97.114;2023-03-01T07:20:19;19.70;91.00
19622;DHT22;9958;33.196;-97.114;2023-03-01T07:22:52;19.70;91.40
19622;DHT22;9958;33.196;-97.114;2023-03-01T07:25:21;19.70;91.60
19622;DHT22;9958;33.196;-97.114;2023-03-01T07:27:50;19.70;92.10
19622;DHT22;9958;33.196;-97.114;2023-03-01T07:30:19;19.70;92.60
19622;DHT22;9958;33.196;-97.114;2023-03-01T07:32:48;19.70;93.20
19622;DHT22;9958;33.196;-97.114;2023-03-01T07:35:16;19.80;93.70
19622;DHT22;9958;33.196;-97.114;2023-03-01T07:37:44;19.80;94.10
19622;DHT22;9958;33.196;-97.114;2023-03-01T07:40:15;19.70;94.60
19622;DHT22;9958;33.196;-97.114;2023-03-01T07:42:43;19.80;95.10
19622;DHT22;9958;33.196;-97.114;2023-03-01T07:45:11;19.80;95.50
19622;DHT22;9958;33.196;-97.114;2023-03-01T07:47:40;19.80;96.10
19622;DHT22;9958;33.196;-97.114;2023-03-01T07:50:10;19.80;96.90
19622;DHT22;9958;33.196;-97.114;2023-03-01T07:52:39;19.80;97.30
19622;DHT22;9958;33.196;-97.114;2023-03-01T07:55:08;19.80;97.90
19622;DHT22;9958;33.196;-97.114;2023-03-01T07:57:38;19.80;98.60
19622;DHT22;9958;33.196;-97.114;2023-03-01T08:00:09;19.90;99.60
19622;DHT22;9958;33.196;-97.114;2023-03-01T08:02:38;19.90;99.90
19622;DHT22;9958;33.196;-97.114;2023-03-01T08:05:08;19.90;99.90
19622;DHT22;9958;33.196;-97.114;2023-03-01T08:07:37;19.90;99.90
19622;DHT22;9958;33.196;-97.114;2023-03-01T08:10:06;20.00;99.90
19622;DHT22;9958;33.196;-97.114;2023-03-01T08:12:34;20.00;99.90
19622;DHT22;9958;33.196;-97.114;2023-03-01T08:15:05;20.00;99.90
19622;DHT22;9958;33.196;-97.114;2023-03-01T08:17:33;20.00;99.90
19622;DHT22;9958;33.196;-97.114;2023-03-01T08:20:02;20.00;99.90
19622;DHT22;9958;33.196;-97.114;2023-03-01T08:22:32;20.00;99.90
19622;DHT22;9958;33.196;-97.114;2023-03-01T08:25:00;20.00;99.90
19622;DHT22;9958;33.196;-97.114;2023-03-01T08:27:29;20.00;99.90
19622;DHT22;9958;33.196;-97.114;2023-03-01T08:29:57;20.00;99.90
19622;DHT22;9958;33.196;-97.114;2023-03-01T08:32:27;20.00;99.90
19622;DHT22;9958;33.196;-97.114;2023-03-01T08:34:55;20.00;99.90
19622;DHT22;9958;33.196;-97.114;2023-03-01T08:37:24;20.00;99.90
19622;DHT22;9958;33.196;-97.114;2023-03-01T08:39:54;20.00;99.90
19622;DHT22;9958;33.196;-97.114;2023-03-01T08:42:22;20.00;99.90
19622;DHT22;9958;33.196;-97.114;2023-03-01T08:44:50;20.00;99.90
19622;DHT22;9958;33.196;-97.114;2023-03-01T08:47:19;20.00;99.90
19622;DHT22;9958;33.196;-97.114;2023-03-01T08:49:49;20.00;99.90
19622;DHT22;9958;33.196;-97.114;2023-03-01T08:52:19;20.00;99.90
19622;DHT22;9958;33.196;-97.114;2023-03-01T08:54:48;20.00;99.90
19622;DHT22;9958;33.196;-97.114;2023-03-01T08:57:16;20.00;99.90
19622;DHT22;9958;33.196;-97.114;2023-03-01T08:59:44;20.00;99.90
19622;DHT22;9958;33.196;-97.114;2023-03-01T09:02:18;20.00;99.90
19622;DHT22;9958;33.196;-97.114;2023-03-01T09:04:48;20.00;99.90
19622;DHT22;9958;33.196;-97.114;2023-03-01T09:07:16;20.00;99.90
19622;DHT22;9958;33.196;-97.114;2023-03-01T09:09:45;20.00;99.90
19622;DHT22;9958;33.196;-97.114;2023-03-01T09:12:13;20.00;99.90
19622;DHT22;9958;33.196;-97.114;2023-03-01T09:14:41;20.00;99.90
19622;DHT22;9958;33.196;-97.114;2023-03-01T09:17:10;20.00;99.90
19622;DHT22;9958;33.196;-97.114;2023-03-01T09:19:38;20.00;99.90
19622;DHT22;9958;33.196;-97.114;2023-03-01T09:22:08;20.00;99.90
19622;DHT22;9958;33.196;-97.114;2023-03-01T09:24:36;20.00;99.90
19622;DHT22;9958;33.196;-97.114;2023-03-01T09:27:05;20.00;99.90
19622;DHT22;9958;33.196;-97.114;2023-03-01T09:29:36;20.00;99.90
19622;DHT22;9958;33.196;-97.114;2023-03-01T09:32:06;20.00;99.90
19622;DHT22;9958;33.196;-97.114;2023-03-01T09:34:34;20.00;99.90
19622;DHT22;9958;33.196;-97.114;2023-03-01T09:37:25;20.00;99.90
19622;DHT22;9958;33.196;-97.114;2023-03-01T09:39:54;20.00;99.90
19622;DHT22;9958;33.196;-97.114;2023-03-01T09:42:22;19.90;99.90
19622;DHT22;9958;33.196;-97.114;2023-03-01T09:44:53;19.90;99.90
19622;DHT22;9958;33.196;-97.114;2023-03-01T09:47:27;19.90;99.90
19622;DHT22;9958;33.196;-97.114;2023-03-01T09:50:03;19.90;99.90
19622;DHT22;9958;33.196;-97.114;2023-03-01T09:52:40;19.90;99.90
19622;DHT22;9958;33.196;-97.114;2023-03-01T09:55:11;19.90;99.90
19622;DHT22;9958;33.196;-97.114;2023-03-01T09:57:47;19.90;99.90
19622;DHT22;9958;33.196;-97.114;2023-03-01T10:00:23;19.90;99.90
19622;DHT22;9958;33.196;-97.114;2023-03-01T10:02:59;19.80;99.90
19622;DHT22;9958;33.196;-97.114;2023-03-01T10:05:41;19.80;99.90
19622;DHT22;9958;33.196;-97.114;2023-03-01T10:08:29;19.80;99.90
19622;DHT22;9958;33.196;-97.114;2023-03-01T10:10:59;19.80;99.90
19622;DHT22;9958;33.196;-97.114;2023-03-01T10:13:33;19.80;99.90
19622;DHT22;9958;33.196;-97.114;2023-03-01T10:16:09;19.70;99.90
19622;DHT22;9958;33.196;-97.114;2023-03-01T10:18:40;19.70;99.90
19622;DHT22;9958;33.196;-97.114;2023-03-01T10:21:14;19.70;99.90
19622;DHT22;9958;33.196;-97.114;2023-03-01T10:23:46;19.70;99.90
19622;DHT22;9958;33.196;-97.114;2023-03-01T10:26:35;19.70;99.90
19622;DHT22;9958;33.196;-97.114;2023-03-01T10:29:09;19.60;99.90
19622;DHT22;9958;33.196;-97.114;2023-03-01T10:31:41;19.60;99.90
19622;DHT22;9958;33.196;-97.114;2023-03-01T10:34:12;19.60;99.90
19622;DHT22;9958;33.196;-97.114;2023-03-01T10:36:42;19.60;99.90
19622;DHT22;9958;33.196;-97.114;2023-03-01T10:39:19;19.60;99.90
19622;DHT22;9958;33.196;-97.114;2023-03-01T10:42:00;19.60;99.90
19622;DHT22;9958;33.196;-97.114;2023-03-01T10:44:43;19.60;99.90
19622;DHT22;9958;33.196;-97.114;2023-03-01T10:47:20;19.50;99.90
19622;DHT22;9958;33.196;-97.114;2023-03-01T10:49:54;19.50;99.90
19622;DHT22;9958;33.196;-97.114;2023-03-01T10:52:25;19.50;99.90
19622;DHT22;9958;33.196;-97.114;2023-03-01T10:54:56;19.50;99.90
19622;DHT22;9958;33.196;-97.114;2023-03-01T10:57:30;19.50;99.90
19622;DHT22;9958;33.196;-97.114;2023-03-01T11:00:21;19.50;99.90
19622;DHT22;9958;33.196;-97.114;2023-03-01T11:03:01;19.50;99.90
19622;DHT22;9958;33.196;-97.114;2023-03-01T11:05:30;19.50;99.90
19622;DHT22;9958;33.196;-97.114;2023-03-01T11:08:00;19.50;99.90
19622;DHT22;9958;33.196;-97.114;2023-03-01T11:10:32;19.40;99.90
19622;DHT22;9958;33.196;-97.114;2023-03-01T11:13:08;19.40;99.90
19622;DHT22;9958;33.196;-97.114;2023-03-01T11:15:37;19.40;99.90
19622;DHT22;9958;33.196;-97.114;2023-03-01T11:18:05;19.40;99.90
19622;DHT22;9958;33.196;-97.114;2023-03-01T11:20:47;19.40;99.90
19622;DHT22;9958;33.196;-97.114;2023-03-01T11:23:16;19.40;99.90
19622;DHT22;9958;33.196;-97.114;2023-03-01T11:25:54;19.40;99.90
19622;DHT22;9958;33.196;-97.114;2023-03-01T11:28:23;19.40;99.90
19622;DHT22;9958;33.196;-97.114;2023-03-01T11:30:57;19.40;99.90
19622;DHT22;9958;33.196;-97.114;2023-03-01T11:33:35;19.40;99.90
19622;DHT22;9958;33.196;-97.114;2023-03-01T11:36:11;19.40;99.90
19622;DHT22;9958;33.196;-97.114;2023-03-01T11:38:41;19.40;99.90
19622;DHT22;9958;33.196;-97.114;2023-03-01T11:41:15;19.40;99.90
19622;DHT22;9958;33.196;-97.114;2023-03-01T11:43:49;19.30;99.90
19622;DHT22;9958;33.196;-97.114;2023-03-01T11:46:58;19.30;99.90
19622;DHT22;9958;33.196;-97.114;2023-03-01T11:52:39;19.30;99.90
19622;DHT22;9958;33.196;-97.114;2023-03-01T11:55:28;19.30;99.90
19622;DHT22;9958;33.196;-97.114;2023-03-01T11:58:17;19.30;99.90
19622;DHT22;9958;33.196;-97.114;2023-03-01T12:01:08;19.30;99.90
19622;DHT22;9958;33.196;-97.114;2023-03-01T12:03:53;19.20;99.90
19622;DHT22;9958;33.196;-97.114;2023-03-01T12:06:35;19.20;99.90
19622;DHT22;9958;33.196;-97.114;2023-03-01T12:09:21;19.20;99.90
19622;DHT22;9958;33.196;-97.114;2023-03-01T12:15:11;19.20;99.90
19622;DHT22;9958;33.196;-97.114;2023-03-01T12:18:01;19.20;99.90
19622;DHT22;9958;33.196;-97.114;2023-03-01T12:20:39;19.10;99.90
19622;DHT22;9958;33.196;-97.114;2023-03-01T12:23:26;19.10;99.90
19622;DHT22;9958;33.196;-97.114;2023-03-01T12:26:01;19.00;99.90
19622;DHT22;9958;33.196;-97.114;2023-03-01T12:28:52;19.00;99.90
19622;DHT22;9958;33.196;-97.114;2023-03-01T12:37:24;18.90;99.90
19622;DHT22;9958;33.196;-97.114;2023-03-01T12:40:23;18.80;99.90
19622;DHT22;9958;33.196;-97.114;2023-03-01T12:43:03;18.80;99.90
19622;DHT22;9958;33.196;-97.114;2023-03-01T12:45:47;18.70;99.90
19622;DHT22;9958;33.196;-97.114;2023-03-01T12:48:28;18.70;99.90
19622;DHT22;9958;33.196;-97.114;2023-03-01T12:51:01;18.60;99.90
19622;DHT22;9958;33.196;-97.114;2023-03-01T12:53:34;18.60;99.90
19622;DHT22;9958;33.196;-97.114;2023-03-01T12:56:06;18.50;99.90
19622;DHT22;9958;33.196;-97.114;2023-03-01T12:58:40;18.60;99.90
19622;DHT22;9958;33.196;-97.114;2023-03-01T13:01:18;18.50;99.90
19622;DHT22;9958;33.196;-97.114;2023-03-01T13:04:14;18.50;99.90
19622;DHT22;9958;33.196;-97.114;2023-03-01T13:06:54;18.50;99.90
19622;DHT22;9958;33.196;-97.114;2023-03-01T13:09:30;18.40;99.90
19622;DHT22;9958;33.196;-97.114;2023-03-01T13:12:01;18.40;99.90
19622;DHT22;9958;33.196;-97.114;2023-03-01T13:14:45;18.40;99.90
19622;DHT22;9958;33.196;-97.114;2023-03-01T13:17:39;18.40;99.90
19622;DHT22;9958;33.196;-97.114;2023-03-01T13:20:18;18.40;99.90
19622;DHT22;9958;33.196;-97.114;2023-03-01T13:22:47;18.40;99.90
19622;DHT22;9958;33.196;-97.114;2023-03-01T13:25:18;18.40;99.90
19622;DHT22;9958;33.196;-97.114;2023-03-01T13:27:47;18.40;99.90
19622;DHT22;9958;33.196;-97.114;2023-03-01T13:30:42;18.40;99.90
19622;DHT22;9958;33.196;-97.114;2023-03-01T13:36:47;18.40;99.90
19622;DHT22;9958;33.196;-97.114;2023-03-01T13:39:39;18.40;99.90
19622;DHT22;9958;33.196;-97.114;2023-03-01T13:45:22;18.40;99.90
19622;DHT22;9958;33.196;-97.114;2023-03-01T13:47:57;18.40;99.90
19622;DHT22;9958;33.196;-97.114;2023-03-01T13:50:28;18.40;99.90
19622;DHT22;9958;33.196;-97.114;2023-03-01T13:53:00;18.40;99.90
19622;DHT22;9958;33.196;-97.114;2023-03-01T13:55:37;18.50;99.90
19622;DHT22;9958;33.196;-97.114;2023-03-01T13:58:16;18.50;99.90
19622;DHT22;9958;33.196;-97.114;2023-03-01T14:00:46;18.50;99.90
19622;DHT22;9958;33.196;-97.114;2023-03-01T14:03:17;18.50;99.90
19622;DHT22;9958;33.196;-97.114;2023-03-01T14:05:59;18.50;99.90
19622;DHT22;9958;33.196;-97.114;2023-03-01T14:08:30;18.50;99.90
19622;DHT22;9958;33.196;-97.114;2023-03-01T14:14:13;18.60;99.90
19622;DHT22;9958;33.196;-97.114;2023-03-01T14:16:51;18.60;99.90
19622;DHT22;9958;33.196;-97.114;2023-03-01T14:19:23;18.70;99.90
19622;DHT22;9958;33.196;-97.114;2023-03-01T14:22:00;18.70;99.90
19622;DHT22;9958;33.196;-97.114;2023-03-01T14:24:32;18.70;99.90
19622;DHT22;9958;33.196;-97.114;2023-03-01T14:27:02;18.70;99.90
19622;DHT22;9958;33.196;-97.114;2023-03-01T14:29:37;18.70;99.90
19622;DHT22;9958;33.196;-97.114;2023-03-01T14:32:15;18.70;99.90
19622;DHT22;9958;33.196;-97.114;2023-03-01T14:34:46;18.70;99.90
19622;DHT22;9958;33.196;-97.114;2023-03-01T14:37:24;18.80;99.90
19622;DHT22;9958;33.196;-97.114;2023-03-01T14:39:54;18.90;99.90
19622;DHT22;9958;33.196;-97.114;2023-03-01T14:42:24;19.00;99.90
19622;DHT22;9958;33.196;-97.114;2023-03-01T14:44:55;19.10;99.90
19622;DHT22;9958;33.196;-97.114;2023-03-01T14:47:27;19.30;99.90
19622;DHT22;9958;33.196;-97.114;2023-03-01T14:49:59;19.50;99.90
19622;DHT22;9958;33.196;-97.114;2023-03-01T14:52:33;19.70;99.90
19622;DHT22;9958;33.196;-97.114;2023-03-01T14:55:06;19.90;99.90
19622;DHT22;9958;33.196;-97.114;2023-03-01T14:57:35;20.00;99.90
19622;DHT22;9958;33.196;-97.114;2023-03-01T15:00:07;20.10;99.90
19622;DHT22;9958;33.196;-97.114;2023-03-01T15:02:35;20.20;99.90
19622;DHT22;9958;33.196;-97.114;2023-03-01T15:05:06;20.30;99.90
19622;DHT22;9958;33.196;-97.114;2023-03-01T15:07:38;20.40;99.90
19622;DHT22;9958;33.196;-97.114;2023-03-01T15:10:17;20.60;99.90
19622;DHT22;9958;33.196;-97.114;2023-03-01T15:12:47;20.70;99.90
19622;DHT22;9958;33.196;-97.114;2023-03-01T15:15:36;20.70;99.90
19622;DHT22;9958;33.196;-97.114;2023-03-01T15:18:16;20.80;99.90
19622;DHT22;9958;33.196;-97.114;2023-03-01T15:20:45;20.90;99.90
19622;DHT22;9958;33.196;-97.114;2023-03-01T15:23:22;21.00;99.90
19622;DHT22;9958;33.196;-97.114;2023-03-01T15:25:53;21.10;99.90
19622;DHT22;9958;33.196;-97.114;2023-03-01T15:28:25;21.20;99.90
19622;DHT22;9958;33.196;-97.114;2023-03-01T15:30:57;21.30;99.90
19622;DHT22;9958;33.196;-97.114;2023-03-01T15:33:35;21.40;99.90
19622;DHT22;9958;33.196;-97.114;2023-03-01T15:36:32;21.50;99.90
19622;DHT22;9958;33.196;-97.114;2023-03-01T15:39:02;21.50;99.90
19622;DHT22;9958;33.196;-97.114;2023-03-01T15:41:46;21.60;99.90
19622;DHT22;9958;33.196;-97.114;2023-03-01T15:44:23;21.70;99.90
19622;DHT22;9958;33.196;-97.114;2023-03-01T15:46:52;21.70;99.90
19622;DHT22;9958;33.196;-97.114;2023-03-01T15:49:33;21.70;99.90
19622;DHT22;9958;33.196;-97.114;2023-03-01T15:52:03;21.80;99.90
19622;DHT22;9958;33.196;-97.114;2023-03-01T15:54:32;21.80;99.90
19622;DHT22;9958;33.196;-97.114;2023-03-01T15:57:02;21.90;99.90
19622;DHT22;9958;33.196;-97.114;2023-03-01T15:59:30;21.90;99.90
19622;DHT22;9958;33.196;-97.114;2023-03-01T16:01:59;22.00;99.90
19622;DHT22;9958;33.196;-97.114;2023-03-01T16:04:27;22.10;99.90
19622;DHT22;9958;33.196;-97.114;2023-03-01T16:06:55;22.10;99.90
19622;DHT22;9958;33.196;-97.114;2023-03-01T16:09:25;22.20;99.90